logo dgac
Lunes 19 de Abril del 2021
Buscar por aerodromo o helipuerto
Ingrese nombre de aeródromo, localidad o designador OACI:
TAF: TAF SCRD 191030Z 1912/1924 27004KT 3000 BR BKN005 TX16/1918Z TN10/1912Z TEMPO 1912/1914 VRB02KT 1000 BR OVC002 BECMG 1914/1916 6000 SCT008 BECMG 1916/1918 33008KT CAVOK
TAF del 19/04/2021 a las 10:30 UTC
Para mayor información visite www.meteochile.cl
Período de validez: desde el 19 a las 12:00 UTC hasta el 19 a las 24:00 UTC
Viento: dirección 270 grados, velocidad 4 nudos
Visibilidad: 3000 metros
Neblina
Nubes: Nublado a 500 pies sobre el nivel del aeródromo
Temperatura máxima: 16ºC el 19 a las 18:00 UTC
Temperatura mínima: 10ºC el 19 a las 12:00 UTC
Se espera en forma temporal entre las 12:00 UTC del 19 y las 14:00 UTC del 19:
Viento: dirección variable, velocidad 2 nudos
Visibilidad: 1000 metros
Neblina
Nubes: Cubierto a 200 pies sobre el nivel del aeródromo
Se espera un cambio entre las 14:00 UTC del 19 y las 16:00 UTC del 19, :
Visibilidad: 6000 metros
Nubes: Nubosidad parcial a 800 pies sobre el nivel del aeródromo
Se espera un cambio entre las 16:00 UTC del 19 y las 18:00 UTC del 19, :
Viento: dirección 330 grados, velocidad 8 nudos
Visibilidad: 10 km o más,
    sin nubes bajo los 5.000 pies o bajo del MSA (Mínimo de Seguridad del Aeródromo),
    sin cumulonimbus, y sin fenómenos de tiempo significativo en el aeródromo o alrededores